sensor_id;sensor_type;location;lat;lon;timestamp;P1;durP1;ratioP1;P2;durP2;ratioP2
49310;SDS011;35177;45.900;5.946;2024-02-21T00:00:35;5.32;;;3.25;;
49310;SDS011;35177;45.900;5.946;2024-02-21T00:03:03;9.68;;;2.85;;
49310;SDS011;35177;45.900;5.946;2024-02-21T00:05:29;4.15;;;2.75;;
49310;SDS011;35177;45.900;5.946;2024-02-21T00:07:54;5.10;;;3.38;;
49310;SDS011;35177;45.900;5.946;2024-02-21T00:10:20;8.15;;;3.28;;
49310;SDS011;35177;45.900;5.946;2024-02-21T00:12:45;7.45;;;2.85;;
49310;SDS011;35177;45.900;5.946;2024-02-21T00:15:10;5.68;;;3.17;;
49310;SDS011;35177;45.900;5.946;2024-02-21T00:17:36;6.78;;;3.58;;
49310;SDS011;35177;45.900;5.946;2024-02-21T00:20:01;6.22;;;3.38;;
49310;SDS011;35177;45.900;5.946;2024-02-21T00:22:26;5.38;;;3.60;;
49310;SDS011;35177;45.900;5.946;2024-02-21T00:24:54;10.30;;;4.47;;
49310;SDS011;35177;45.900;5.946;2024-02-21T00:27:19;6.93;;;3.55;;
49310;SDS011;35177;45.900;5.946;2024-02-21T00:29:44;5.50;;;3.58;;
49310;SDS011;35177;45.900;5.946;2024-02-21T00:32:10;8.88;;;3.72;;
49310;SDS011;35177;45.900;5.946;2024-02-21T00:34:35;7.32;;;4.55;;
49310;SDS011;35177;45.900;5.946;2024-02-21T00:37:00;7.97;;;4.72;;
49310;SDS011;35177;45.900;5.946;2024-02-21T00:39:26;6.53;;;4.00;;
49310;SDS011;35177;45.900;5.946;2024-02-21T00:41:51;8.15;;;4.38;;
49310;SDS011;35177;45.900;5.946;2024-02-21T00:44:16;7.72;;;4.40;;
49310;SDS011;35177;45.900;5.946;2024-02-21T00:46:42;7.93;;;3.53;;
49310;SDS011;35177;45.900;5.946;2024-02-21T00:49:07;6.72;;;3.85;;
49310;SDS011;35177;45.900;5.946;2024-02-21T00:51:32;8.95;;;3.47;;
49310;SDS011;35177;45.900;5.946;2024-02-21T00:53:58;6.68;;;3.80;;
49310;SDS011;35177;45.900;5.946;2024-02-21T00:56:23;6.97;;;3.50;;
49310;SDS011;35177;45.900;5.946;2024-02-21T00:58:48;5.00;;;3.53;;
49310;SDS011;35177;45.900;5.946;2024-02-21T01:01:20;5.88;;;3.70;;
49310;SDS011;35177;45.900;5.946;2024-02-21T01:03:45;7.32;;;3.92;;
49310;SDS011;35177;45.900;5.946;2024-02-21T01:06:10;6.68;;;3.40;;
49310;SDS011;35177;45.900;5.946;2024-02-21T01:08:36;5.88;;;3.83;;
49310;SDS011;35177;45.900;5.946;2024-02-21T01:11:01;6.75;;;3.80;;
49310;SDS011;35177;45.900;5.946;2024-02-21T01:13:26;5.57;;;3.85;;
49310;SDS011;35177;45.900;5.946;2024-02-21T01:15:51;7.60;;;3.70;;
49310;SDS011;35177;45.900;5.946;2024-02-21T01:18:17;5.40;;;3.85;;
49310;SDS011;35177;45.900;5.946;2024-02-21T01:20:42;5.63;;;3.60;;
49310;SDS011;35177;45.900;5.946;2024-02-21T01:23:08;7.30;;;4.00;;
49310;SDS011;35177;45.900;5.946;2024-02-21T01:25:33;6.25;;;4.10;;
49310;SDS011;35177;45.900;5.946;2024-02-21T01:27:58;7.10;;;4.22;;
49310;SDS011;35177;45.900;5.946;2024-02-21T01:30:23;7.65;;;4.53;;
49310;SDS011;35177;45.900;5.946;2024-02-21T01:32:49;6.50;;;3.65;;
49310;SDS011;35177;45.900;5.946;2024-02-21T01:35:14;6.78;;;4.22;;
49310;SDS011;35177;45.900;5.946;2024-02-21T01:37:39;6.20;;;4.00;;
49310;SDS011;35177;45.900;5.946;2024-02-21T01:40:05;6.82;;;4.10;;
49310;SDS011;35177;45.900;5.946;2024-02-21T01:42:30;8.02;;;3.80;;
49310;SDS011;35177;45.900;5.946;2024-02-21T01:44:55;6.60;;;3.05;;
49310;SDS011;35177;45.900;5.946;2024-02-21T01:47:21;8.32;;;3.88;;
49310;SDS011;35177;45.900;5.946;2024-02-21T01:49:46;7.07;;;4.05;;
49310;SDS011;35177;45.900;5.946;2024-02-21T01:52:11;8.93;;;4.30;;
49310;SDS011;35177;45.900;5.946;2024-02-21T01:54:39;6.45;;;4.15;;
49310;SDS011;35177;45.900;5.946;2024-02-21T01:57:04;7.18;;;4.20;;
49310;SDS011;35177;45.900;5.946;2024-02-21T01:59:30;10.13;;;4.63;;
49310;SDS011;35177;45.900;5.946;2024-02-21T02:01:55;6.25;;;3.88;;
49310;SDS011;35177;45.900;5.946;2024-02-21T02:04:22;9.77;;;4.00;;
49310;SDS011;35177;45.900;5.946;2024-02-21T02:06:47;7.65;;;4.82;;
49310;SDS011;35177;45.900;5.946;2024-02-21T02:09:13;10.45;;;4.97;;
49310;SDS011;35177;45.900;5.946;2024-02-21T02:11:38;8.35;;;4.63;;
49310;SDS011;35177;45.900;5.946;2024-02-21T02:14:04;9.00;;;4.35;;
49310;SDS011;35177;45.900;5.946;2024-02-21T02:16:29;7.53;;;5.10;;
49310;SDS011;35177;45.900;5.946;2024-02-21T02:18:54;9.00;;;4.20;;
49310;SDS011;35177;45.900;5.946;2024-02-21T02:21:25;7.25;;;4.22;;
49310;SDS011;35177;45.900;5.946;2024-02-21T02:23:52;8.27;;;4.07;;
49310;SDS011;35177;45.900;5.946;2024-02-21T02:26:17;7.72;;;4.57;;
49310;SDS011;35177;45.900;5.946;2024-02-21T02:28:42;7.57;;;3.88;;
49310;SDS011;35177;45.900;5.946;2024-02-21T02:31:08;6.45;;;3.70;;
49310;SDS011;35177;45.900;5.946;2024-02-21T02:33:33;6.80;;;4.28;;
49310;SDS011;35177;45.900;5.946;2024-02-21T02:35:58;8.40;;;4.45;;
49310;SDS011;35177;45.900;5.946;2024-02-21T02:38:24;9.02;;;4.90;;
49310;SDS011;35177;45.900;5.946;2024-02-21T02:40:49;7.50;;;4.57;;
49310;SDS011;35177;45.900;5.946;2024-02-21T02:43:14;8.63;;;4.47;;
49310;SDS011;35177;45.900;5.946;2024-02-21T02:45:40;9.52;;;4.55;;
49310;SDS011;35177;45.900;5.946;2024-02-21T02:48:05;5.97;;;3.63;;
49310;SDS011;35177;45.900;5.946;2024-02-21T02:50:31;5.88;;;3.90;;
49310;SDS011;35177;45.900;5.946;2024-02-21T02:52:56;7.15;;;3.95;;
49310;SDS011;35177;45.900;5.946;2024-02-21T02:55:21;6.30;;;4.00;;
49310;SDS011;35177;45.900;5.946;2024-02-21T02:57:47;6.60;;;4.25;;
49310;SDS011;35177;45.900;5.946;2024-02-21T03:00:13;9.52;;;4.50;;
49310;SDS011;35177;45.900;5.946;2024-02-21T03:02:39;7.05;;;4.53;;
49310;SDS011;35177;45.900;5.946;2024-02-21T03:05:11;10.00;;;5.40;;
49310;SDS011;35177;45.900;5.946;2024-02-21T03:07:36;7.43;;;5.00;;
49310;SDS011;35177;45.900;5.946;2024-02-21T03:10:01;16.27;;;5.07;;
49310;SDS011;35177;45.900;5.946;2024-02-21T03:12:27;6.40;;;4.13;;
49310;SDS011;35177;45.900;5.946;2024-02-21T03:14:54;6.63;;;4.20;;
49310;SDS011;35177;45.900;5.946;2024-02-21T03:17:19;7.50;;;4.45;;
49310;SDS011;35177;45.900;5.946;2024-02-21T03:19:44;7.45;;;4.15;;
49310;SDS011;35177;45.900;5.946;2024-02-21T03:22:10;12.43;;;5.07;;
49310;SDS011;35177;45.900;5.946;2024-02-21T03:24:35;7.05;;;4.85;;
49310;SDS011;35177;45.900;5.946;2024-02-21T03:27:00;8.75;;;4.68;;
49310;SDS011;35177;45.900;5.946;2024-02-21T03:29:26;9.63;;;5.82;;
49310;SDS011;35177;45.900;5.946;2024-02-21T03:31:51;8.00;;;5.85;;
49310;SDS011;35177;45.900;5.946;2024-02-21T03:34:16;13.07;;;5.55;;
49310;SDS011;35177;45.900;5.946;2024-02-21T03:36:42;10.90;;;5.93;;
49310;SDS011;35177;45.900;5.946;2024-02-21T03:39:07;10.75;;;6.20;;
49310;SDS011;35177;45.900;5.946;2024-02-21T03:41:34;10.02;;;5.80;;
49310;SDS011;35177;45.900;5.946;2024-02-21T03:43:59;8.05;;;5.13;;
49310;SDS011;35177;45.900;5.946;2024-02-21T03:46:24;9.70;;;5.53;;
49310;SDS011;35177;45.900;5.946;2024-02-21T03:48:50;7.82;;;5.43;;
49310;SDS011;35177;45.900;5.946;2024-02-21T03:51:15;8.23;;;5.35;;
49310;SDS011;35177;45.900;5.946;2024-02-21T03:53:41;8.32;;;4.95;;
49310;SDS011;35177;45.900;5.946;2024-02-21T03:56:06;10.55;;;5.50;;
49310;SDS011;35177;45.900;5.946;2024-02-21T03:58:32;8.60;;;4.80;;
49310;SDS011;35177;45.900;5.946;2024-02-21T04:00:59;8.20;;;4.68;;
49310;SDS011;35177;45.900;5.946;2024-02-21T04:03:24;10.27;;;5.25;;
49310;SDS011;35177;45.900;5.946;2024-02-21T04:05:50;9.25;;;5.00;;
49310;SDS011;35177;45.900;5.946;2024-02-21T04:08:15;5.30;;;4.00;;
49310;SDS011;35177;45.900;5.946;2024-02-21T04:10:41;6.75;;;4.75;;
49310;SDS011;35177;45.900;5.946;2024-02-21T04:13:06;8.88;;;4.70;;
49310;SDS011;35177;45.900;5.946;2024-02-21T04:15:32;10.20;;;5.03;;
49310;SDS011;35177;45.900;5.946;2024-02-21T04:17:57;5.78;;;4.15;;
49310;SDS011;35177;45.900;5.946;2024-02-21T04:20:22;6.72;;;4.43;;
49310;SDS011;35177;45.900;5.946;2024-02-21T04:22:48;6.75;;;4.82;;
49310;SDS011;35177;45.900;5.946;2024-02-21T04:25:14;7.57;;;4.78;;
49310;SDS011;35177;45.900;5.946;2024-02-21T04:27:39;9.52;;;5.22;;
49310;SDS011;35177;45.900;5.946;2024-02-21T04:30:06;7.53;;;5.00;;
49310;SDS011;35177;45.900;5.946;2024-02-21T04:32:31;8.50;;;4.50;;
49310;SDS011;35177;45.900;5.946;2024-02-21T04:34:56;10.13;;;4.68;;
49310;SDS011;35177;45.900;5.946;2024-02-21T04:37:22;9.02;;;4.75;;
49310;SDS011;35177;45.900;5.946;2024-02-21T04:39:48;6.65;;;4.82;;
49310;SDS011;35177;45.900;5.946;2024-02-21T04:42:13;7.72;;;4.82;;
49310;SDS011;35177;45.900;5.946;2024-02-21T04:44:39;10.68;;;5.15;;
49310;SDS011;35177;45.900;5.946;2024-02-21T04:47:04;6.22;;;4.45;;
49310;SDS011;35177;45.900;5.946;2024-02-21T04:49:29;8.27;;;4.55;;
49310;SDS011;35177;45.900;5.946;2024-02-21T04:51:55;6.35;;;4.38;;
49310;SDS011;35177;45.900;5.946;2024-02-21T04:54:20;6.38;;;4.00;;
49310;SDS011;35177;45.900;5.946;2024-02-21T04:56:45;9.70;;;4.70;;
49310;SDS011;35177;45.900;5.946;2024-02-21T04:59:10;7.55;;;4.07;;
49310;SDS011;35177;45.900;5.946;2024-02-21T05:01:36;8.65;;;5.15;;
49310;SDS011;35177;45.900;5.946;2024-02-21T05:04:01;8.05;;;5.72;;
49310;SDS011;35177;45.900;5.946;2024-02-21T05:06:27;17.73;;;6.32;;
49310;SDS011;35177;45.900;5.946;2024-02-21T05:08:52;8.77;;;5.65;;
49310;SDS011;35177;45.900;5.946;2024-02-21T05:11:18;7.45;;;4.80;;
49310;SDS011;35177;45.900;5.946;2024-02-21T05:13:43;7.43;;;5.05;;
49310;SDS011;35177;45.900;5.946;2024-02-21T05:16:08;7.13;;;4.80;;
49310;SDS011;35177;45.900;5.946;2024-02-21T05:18:33;8.18;;;4.82;;
49310;SDS011;35177;45.900;5.946;2024-02-21T05:20:59;9.13;;;4.75;;
49310;SDS011;35177;45.900;5.946;2024-02-21T05:23:24;11.35;;;4.40;;
49310;SDS011;35177;45.900;5.946;2024-02-21T05:25:49;8.38;;;5.03;;
49310;SDS011;35177;45.900;5.946;2024-02-21T05:28:15;7.22;;;4.93;;
49310;SDS011;35177;45.900;5.946;2024-02-21T05:30:40;9.38;;;5.28;;
49310;SDS011;35177;45.900;5.946;2024-02-21T05:33:06;8.07;;;4.53;;
49310;SDS011;35177;45.900;5.946;2024-02-21T05:35:32;7.00;;;4.78;;
49310;SDS011;35177;45.900;5.946;2024-02-21T05:37:57;6.65;;;4.72;;
49310;SDS011;35177;45.900;5.946;2024-02-21T05:40:22;9.65;;;4.85;;
49310;SDS011;35177;45.900;5.946;2024-02-21T05:42:48;8.30;;;4.40;;
49310;SDS011;35177;45.900;5.946;2024-02-21T05:45:13;7.32;;;4.18;;
49310;SDS011;35177;45.900;5.946;2024-02-21T05:47:40;10.45;;;4.15;;
49310;SDS011;35177;45.900;5.946;2024-02-21T05:50:06;9.40;;;4.75;;
49310;SDS011;35177;45.900;5.946;2024-02-21T05:52:31;9.07;;;4.93;;
49310;SDS011;35177;45.900;5.946;2024-02-21T05:54:56;8.48;;;4.75;;
49310;SDS011;35177;45.900;5.946;2024-02-21T05:57:21;6.20;;;4.60;;
49310;SDS011;35177;45.900;5.946;2024-02-21T05:59:47;6.75;;;4.30;;
49310;SDS011;35177;45.900;5.946;2024-02-21T06:02:12;6.10;;;4.63;;
49310;SDS011;35177;45.900;5.946;2024-02-21T06:04:38;8.88;;;4.53;;
49310;SDS011;35177;45.900;5.946;2024-02-21T06:07:04;9.82;;;5.13;;
49310;SDS011;35177;45.900;5.946;2024-02-21T06:09:29;7.65;;;4.60;;
49310;SDS011;35177;45.900;5.946;2024-02-21T06:11:55;8.20;;;4.53;;
49310;SDS011;35177;45.900;5.946;2024-02-21T06:14:20;8.18;;;4.88;;
49310;SDS011;35177;45.900;5.946;2024-02-21T06:16:45;8.63;;;5.20;;
49310;SDS011;35177;45.900;5.946;2024-02-21T06:19:11;8.63;;;4.20;;
49310;SDS011;35177;45.900;5.946;2024-02-21T06:21:36;6.65;;;4.43;;
49310;SDS011;35177;45.900;5.946;2024-02-21T06:24:03;9.50;;;4.60;;
49310;SDS011;35177;45.900;5.946;2024-02-21T06:26:28;11.05;;;5.35;;
49310;SDS011;35177;45.900;5.946;2024-02-21T06:28:53;10.20;;;5.05;;
49310;SDS011;35177;45.900;5.946;2024-02-21T06:31:19;7.28;;;4.15;;
49310;SDS011;35177;45.900;5.946;2024-02-21T06:33:44;7.07;;;4.50;;
49310;SDS011;35177;45.900;5.946;2024-02-21T06:36:09;7.85;;;4.72;;
49310;SDS011;35177;45.900;5.946;2024-02-21T06:38:44;8.35;;;4.45;;
49310;SDS011;35177;45.900;5.946;2024-02-21T06:41:16;10.18;;;3.90;;
49310;SDS011;35177;45.900;5.946;2024-02-21T06:43:41;10.00;;;4.70;;
49310;SDS011;35177;45.900;5.946;2024-02-21T06:46:07;6.50;;;4.50;;
49310;SDS011;35177;45.900;5.946;2024-02-21T06:48:32;8.45;;;4.75;;
49310;SDS011;35177;45.900;5.946;2024-02-21T06:50:57;7.18;;;4.45;;
49310;SDS011;35177;45.900;5.946;2024-02-21T06:53:23;6.60;;;4.63;;
49310;SDS011;35177;45.900;5.946;2024-02-21T06:55:48;7.47;;;4.28;;
49310;SDS011;35177;45.900;5.946;2024-02-21T06:58:13;6.90;;;4.63;;
49310;SDS011;35177;45.900;5.946;2024-02-21T07:00:42;7.07;;;5.07;;
49310;SDS011;35177;45.900;5.946;2024-02-21T07:03:07;8.52;;;5.07;;
49310;SDS011;35177;45.900;5.946;2024-02-21T07:05:32;10.57;;;5.63;;
49310;SDS011;35177;45.900;5.946;2024-02-21T07:07:57;6.95;;;5.38;;
49310;SDS011;35177;45.900;5.946;2024-02-21T07:10:23;7.05;;;5.22;;
49310;SDS011;35177;45.900;5.946;2024-02-21T07:12:48;10.35;;;6.00;;
49310;SDS011;35177;45.900;5.946;2024-02-21T07:15:13;10.63;;;5.78;;
49310;SDS011;35177;45.900;5.946;2024-02-21T07:17:38;10.60;;;5.10;;
49310;SDS011;35177;45.900;5.946;2024-02-21T07:20:04;7.00;;;4.57;;
49310;SDS011;35177;45.900;5.946;2024-02-21T07:22:33;7.72;;;5.40;;
49310;SDS011;35177;45.900;5.946;2024-02-21T07:24:58;8.82;;;5.20;;
49310;SDS011;35177;45.900;5.946;2024-02-21T07:27:23;7.43;;;4.72;;
49310;SDS011;35177;45.900;5.946;2024-02-21T07:29:52;8.05;;;4.95;;
49310;SDS011;35177;45.900;5.946;2024-02-21T07:32:18;8.82;;;5.13;;
49310;SDS011;35177;45.900;5.946;2024-02-21T07:34:43;8.50;;;5.10;;
49310;SDS011;35177;45.900;5.946;2024-02-21T07:37:08;12.98;;;5.25;;
49310;SDS011;35177;45.900;5.946;2024-02-21T07:39:35;9.73;;;5.32;;
49310;SDS011;35177;45.900;5.946;2024-02-21T07:42:01;8.65;;;5.50;;
49310;SDS011;35177;45.900;5.946;2024-02-21T07:44:26;13.55;;;5.78;;
49310;SDS011;35177;45.900;5.946;2024-02-21T07:46:51;8.23;;;6.00;;
49310;SDS011;35177;45.900;5.946;2024-02-21T07:49:17;11.95;;;5.72;;
49310;SDS011;35177;45.900;5.946;2024-02-21T07:51:42;10.35;;;5.57;;
49310;SDS011;35177;45.900;5.946;2024-02-21T07:54:07;12.23;;;5.65;;
49310;SDS011;35177;45.900;5.946;2024-02-21T07:56:32;11.15;;;5.43;;
49310;SDS011;35177;45.900;5.946;2024-02-21T07:58:58;11.80;;;5.72;;
49310;SDS011;35177;45.900;5.946;2024-02-21T08:01:23;10.93;;;6.10;;
49310;SDS011;35177;45.900;5.946;2024-02-21T08:03:48;13.07;;;6.25;;
49310;SDS011;35177;45.900;5.946;2024-02-21T08:06:14;8.38;;;5.43;;
49310;SDS011;35177;45.900;5.946;2024-02-21T08:08:39;9.35;;;6.10;;
49310;SDS011;35177;45.900;5.946;2024-02-21T08:11:04;11.05;;;6.28;;
49310;SDS011;35177;45.900;5.946;2024-02-21T08:13:30;10.60;;;5.90;;
49310;SDS011;35177;45.900;5.946;2024-02-21T08:15:56;10.10;;;5.70;;
49310;SDS011;35177;45.900;5.946;2024-02-21T08:18:22;9.25;;;6.10;;
49310;SDS011;35177;45.900;5.946;2024-02-21T08:20:47;11.57;;;7.07;;
49310;SDS011;35177;45.900;5.946;2024-02-21T08:23:12;10.30;;;6.50;;
49310;SDS011;35177;45.900;5.946;2024-02-21T08:25:38;20.20;;;7.03;;
49310;SDS011;35177;45.900;5.946;2024-02-21T08:28:04;8.70;;;6.30;;
49310;SDS011;35177;45.900;5.946;2024-02-21T08:30:30;15.55;;;7.00;;
49310;SDS011;35177;45.900;5.946;2024-02-21T08:32:55;11.50;;;7.05;;
49310;SDS011;35177;45.900;5.946;2024-02-21T08:35:21;12.82;;;7.82;;
49310;SDS011;35177;45.900;5.946;2024-02-21T08:37:49;18.88;;;10.13;;
49310;SDS011;35177;45.900;5.946;2024-02-21T08:40:15;21.45;;;12.18;;
49310;SDS011;35177;45.900;5.946;2024-02-21T08:42:43;22.00;;;9.45;;
49310;SDS011;35177;45.900;5.946;2024-02-21T08:45:08;16.83;;;8.70;;
49310;SDS011;35177;45.900;5.946;2024-02-21T08:47:33;16.30;;;8.65;;
49310;SDS011;35177;45.900;5.946;2024-02-21T08:50:00;17.02;;;7.90;;
49310;SDS011;35177;45.900;5.946;2024-02-21T08:52:25;13.82;;;8.02;;
49310;SDS011;35177;45.900;5.946;2024-02-21T08:54:50;11.88;;;7.50;;
49310;SDS011;35177;45.900;5.946;2024-02-21T08:57:18;12.95;;;7.38;;
49310;SDS011;35177;45.900;5.946;2024-02-21T08:59:44;16.27;;;7.25;;
49310;SDS011;35177;45.900;5.946;2024-02-21T09:02:09;9.80;;;6.57;;
49310;SDS011;35177;45.900;5.946;2024-02-21T09:04:34;10.40;;;6.72;;
49310;SDS011;35177;45.900;5.946;2024-02-21T09:06:59;14.10;;;7.05;;
49310;SDS011;35177;45.900;5.946;2024-02-21T09:09:24;12.30;;;6.82;;
49310;SDS011;35177;45.900;5.946;2024-02-21T09:11:50;9.50;;;6.25;;
49310;SDS011;35177;45.900;5.946;2024-02-21T09:14:15;9.45;;;6.30;;
49310;SDS011;35177;45.900;5.946;2024-02-21T09:16:40;13.05;;;6.30;;
49310;SDS011;35177;45.900;5.946;2024-02-21T09:19:06;14.85;;;6.50;;
49310;SDS011;35177;45.900;5.946;2024-02-21T09:21:32;10.13;;;6.43;;
49310;SDS011;35177;45.900;5.946;2024-02-21T09:23:57;11.93;;;6.60;;
49310;SDS011;35177;45.900;5.946;2024-02-21T09:26:22;8.38;;;5.80;;
49310;SDS011;35177;45.900;5.946;2024-02-21T09:28:47;10.70;;;5.78;;
49310;SDS011;35177;45.900;5.946;2024-02-21T09:31:13;8.73;;;5.47;;
49310;SDS011;35177;45.900;5.946;2024-02-21T09:33:38;8.95;;;5.32;;
49310;SDS011;35177;45.900;5.946;2024-02-21T09:36:04;11.57;;;6.72;;
49310;SDS011;35177;45.900;5.946;2024-02-21T09:38:30;10.20;;;7.57;;
49310;SDS011;35177;45.900;5.946;2024-02-21T09:40:58;10.98;;;5.90;;
49310;SDS011;35177;45.900;5.946;2024-02-21T09:43:24;10.32;;;4.80;;
49310;SDS011;35177;45.900;5.946;2024-02-21T09:45:50;6.90;;;4.70;;
49310;SDS011;35177;45.900;5.946;2024-02-21T09:51:04;7.40;;;4.30;;
49310;SDS011;35177;45.900;5.946;2024-02-21T09:53:31;6.28;;;4.47;;
49310;SDS011;35177;45.900;5.946;2024-02-21T09:55:57;8.00;;;4.45;;
49310;SDS011;35177;45.900;5.946;2024-02-21T09:58:23;20.98;;;10.30;;
49310;SDS011;35177;45.900;5.946;2024-02-21T10:00:49;7.47;;;4.80;;
49310;SDS011;35177;45.900;5.946;2024-02-21T10:03:14;7.68;;;4.60;;
49310;SDS011;35177;45.900;5.946;2024-02-21T10:05:45;6.18;;;4.50;;
49310;SDS011;35177;45.900;5.946;2024-02-21T10:08:15;8.80;;;4.57;;
49310;SDS011;35177;45.900;5.946;2024-02-21T10:10:41;12.93;;;5.07;;
49310;SDS011;35177;45.900;5.946;2024-02-21T10:13:07;7.55;;;4.35;;
49310;SDS011;35177;45.900;5.946;2024-02-21T10:15:32;9.23;;;4.90;;
49310;SDS011;35177;45.900;5.946;2024-02-21T10:17:58;8.88;;;4.40;;
49310;SDS011;35177;45.900;5.946;2024-02-21T10:20:24;10.57;;;5.28;;
49310;SDS011;35177;45.900;5.946;2024-02-21T10:22:59;11.70;;;4.43;;
49310;SDS011;35177;45.900;5.946;2024-02-21T10:25:25;7.72;;;4.63;;
49310;SDS011;35177;45.900;5.946;2024-02-21T10:27:50;7.07;;;4.53;;
49310;SDS011;35177;45.900;5.946;2024-02-21T10:30:16;7.55;;;4.80;;
49310;SDS011;35177;45.900;5.946;2024-02-21T10:32:59;7.53;;;4.55;;
49310;SDS011;35177;45.900;5.946;2024-02-21T10:35:28;8.07;;;5.68;;
49310;SDS011;35177;45.900;5.946;2024-02-21T10:37:54;6.30;;;4.78;;
49310;SDS011;35177;45.900;5.946;2024-02-21T10:40:24;6.97;;;4.60;;
49310;SDS011;35177;45.900;5.946;2024-02-21T10:42:51;7.10;;;4.53;;
49310;SDS011;35177;45.900;5.946;2024-02-21T10:45:19;7.97;;;4.88;;
49310;SDS011;35177;45.900;5.946;2024-02-21T10:47:45;6.80;;;4.60;;
49310;SDS011;35177;45.900;5.946;2024-02-21T10:50:13;5.50;;;4.65;;
49310;SDS011;35177;45.900;5.946;2024-02-21T10:52:47;8.60;;;4.90;;
49310;SDS011;35177;45.900;5.946;2024-02-21T10:55:16;7.50;;;4.78;;
49310;SDS011;35177;45.900;5.946;2024-02-21T10:57:44;7.20;;;4.35;;
49310;SDS011;35177;45.900;5.946;2024-02-21T11:00:10;6.47;;;4.20;;
49310;SDS011;35177;45.900;5.946;2024-02-21T11:02:37;6.22;;;3.97;;
49310;SDS011;35177;45.900;5.946;2024-02-21T11:05:04;7.47;;;4.55;;
49310;SDS011;35177;45.900;5.946;2024-02-21T11:07:30;9.68;;;4.85;;
49310;SDS011;35177;45.900;5.946;2024-02-21T11:09:57;6.85;;;4.57;;
49310;SDS011;35177;45.900;5.946;2024-02-21T11:12:24;9.23;;;5.65;;
49310;SDS011;35177;45.900;5.946;2024-02-21T11:14:50;7.15;;;4.50;;
49310;SDS011;35177;45.900;5.946;2024-02-21T11:17:19;10.82;;;4.88;;
49310;SDS011;35177;45.900;5.946;2024-02-21T11:19:44;7.20;;;4.80;;
49310;SDS011;35177;45.900;5.946;2024-02-21T11:22:19;9.40;;;4.47;;
49310;SDS011;35177;45.900;5.946;2024-02-21T11:24:46;6.88;;;5.22;;
49310;SDS011;35177;45.900;5.946;2024-02-21T11:27:12;8.15;;;4.22;;
49310;SDS011;35177;45.900;5.946;2024-02-21T11:29:42;10.27;;;4.53;;
49310;SDS011;35177;45.900;5.946;2024-02-21T11:32:09;9.13;;;4.72;;
49310;SDS011;35177;45.900;5.946;2024-02-21T11:34:34;6.65;;;4.93;;
49310;SDS011;35177;45.900;5.946;2024-02-21T11:36:59;8.55;;;5.03;;
49310;SDS011;35177;45.900;5.946;2024-02-21T11:39:25;7.95;;;4.40;;
49310;SDS011;35177;45.900;5.946;2024-02-21T11:42:07;7.28;;;4.20;;
49310;SDS011;35177;45.900;5.946;2024-02-21T11:44:34;8.85;;;4.40;;
49310;SDS011;35177;45.900;5.946;2024-02-21T11:46:59;9.18;;;4.97;;
49310;SDS011;35177;45.900;5.946;2024-02-21T11:49:25;4.88;;;3.90;;
49310;SDS011;35177;45.900;5.946;2024-02-21T11:51:57;5.00;;;4.10;;
49310;SDS011;35177;45.900;5.946;2024-02-21T11:54:23;7.10;;;4.53;;
49310;SDS011;35177;45.900;5.946;2024-02-21T11:56:49;8.48;;;4.75;;
49310;SDS011;35177;45.900;5.946;2024-02-21T11:59:14;7.57;;;4.13;;
49310;SDS011;35177;45.900;5.946;2024-02-21T12:01:39;7.57;;;4.10;;
49310;SDS011;35177;45.900;5.946;2024-02-21T12:04:04;7.60;;;4.47;;
49310;SDS011;35177;45.900;5.946;2024-02-21T12:06:32;6.88;;;4.05;;
49310;SDS011;35177;45.900;5.946;2024-02-21T12:08:57;9.48;;;4.18;;
49310;SDS011;35177;45.900;5.946;2024-02-21T12:11:23;8.27;;;4.50;;
49310;SDS011;35177;45.900;5.946;2024-02-21T12:14:03;9.75;;;3.95;;
49310;SDS011;35177;45.900;5.946;2024-02-21T12:16:33;11.65;;;4.57;;
49310;SDS011;35177;45.900;5.946;2024-02-21T12:18:59;6.25;;;4.55;;
49310;SDS011;35177;45.900;5.946;2024-02-21T12:21:24;6.90;;;4.95;;
49310;SDS011;35177;45.900;5.946;2024-02-21T12:23:50;14.05;;;6.78;;
49310;SDS011;35177;45.900;5.946;2024-02-21T12:26:15;11.70;;;5.80;;
49310;SDS011;35177;45.900;5.946;2024-02-21T12:28:40;7.25;;;4.80;;
49310;SDS011;35177;45.900;5.946;2024-02-21T12:31:06;7.47;;;4.25;;
49310;SDS011;35177;45.900;5.946;2024-02-21T12:33:31;8.73;;;4.50;;
49310;SDS011;35177;45.900;5.946;2024-02-21T12:35:56;8.07;;;4.85;;
49310;SDS011;35177;45.900;5.946;2024-02-21T12:38:23;9.07;;;4.65;;
49310;SDS011;35177;45.900;5.946;2024-02-21T12:40:48;7.70;;;4.88;;
49310;SDS011;35177;45.900;5.946;2024-02-21T12:43:13;7.47;;;4.93;;
49310;SDS011;35177;45.900;5.946;2024-02-21T12:45:39;6.88;;;4.57;;
49310;SDS011;35177;45.900;5.946;2024-02-21T12:48:04;9.73;;;4.60;;
49310;SDS011;35177;45.900;5.946;2024-02-21T12:50:30;7.15;;;4.45;;
49310;SDS011;35177;45.900;5.946;2024-02-21T12:52:56;7.40;;;5.05;;
49310;SDS011;35177;45.900;5.946;2024-02-21T12:55:21;9.95;;;4.13;;
49310;SDS011;35177;45.900;5.946;2024-02-21T12:57:46;9.82;;;4.55;;
49310;SDS011;35177;45.900;5.946;2024-02-21T13:00:12;13.20;;;4.97;;
49310;SDS011;35177;45.900;5.946;2024-02-21T13:02:37;6.40;;;4.00;;
49310;SDS011;35177;45.900;5.946;2024-02-21T13:05:03;10.10;;;4.53;;
49310;SDS011;35177;45.900;5.946;2024-02-21T13:07:29;7.68;;;4.00;;
49310;SDS011;35177;45.900;5.946;2024-02-21T13:09:56;6.80;;;4.28;;
49310;SDS011;35177;45.900;5.946;2024-02-21T13:12:21;6.97;;;4.50;;
49310;SDS011;35177;45.900;5.946;2024-02-21T13:14:46;7.85;;;4.05;;
49310;SDS011;35177;45.900;5.946;2024-02-21T13:17:12;8.95;;;3.67;;
49310;SDS011;35177;45.900;5.946;2024-02-21T13:19:37;7.97;;;4.32;;
49310;SDS011;35177;45.900;5.946;2024-02-21T13:22:02;11.35;;;3.80;;
49310;SDS011;35177;45.900;5.946;2024-02-21T13:24:28;6.28;;;3.60;;
49310;SDS011;35177;45.900;5.946;2024-02-21T13:26:53;11.07;;;4.78;;
49310;SDS011;35177;45.900;5.946;2024-02-21T13:29:18;10.73;;;3.80;;
49310;SDS011;35177;45.900;5.946;2024-02-21T13:31:45;6.10;;;3.60;;
49310;SDS011;35177;45.900;5.946;2024-02-21T13:34:10;10.57;;;4.25;;
49310;SDS011;35177;45.900;5.946;2024-02-21T13:36:36;11.15;;;4.07;;
49310;SDS011;35177;45.900;5.946;2024-02-21T13:39:01;7.40;;;3.75;;
49310;SDS011;35177;45.900;5.946;2024-02-21T13:41:26;9.95;;;4.10;;
49310;SDS011;35177;45.900;5.946;2024-02-21T13:43:51;9.50;;;4.05;;
49310;SDS011;35177;45.900;5.946;2024-02-21T13:46:17;12.10;;;3.67;;
49310;SDS011;35177;45.900;5.946;2024-02-21T13:48:42;6.38;;;3.58;;
49310;SDS011;35177;45.900;5.946;2024-02-21T13:51:08;9.75;;;4.80;;
49310;SDS011;35177;45.900;5.946;2024-02-21T13:53:33;14.57;;;4.70;;
49310;SDS011;35177;45.900;5.946;2024-02-21T13:55:59;8.23;;;4.22;;
49310;SDS011;35177;45.900;5.946;2024-02-21T13:58:25;6.82;;;4.18;;
49310;SDS011;35177;45.900;5.946;2024-02-21T14:00:51;5.75;;;4.07;;
49310;SDS011;35177;45.900;5.946;2024-02-21T14:03:16;6.93;;;3.90;;
49310;SDS011;35177;45.900;5.946;2024-02-21T14:05:42;7.45;;;4.10;;
49310;SDS011;35177;45.900;5.946;2024-02-21T14:08:07;6.03;;;4.00;;
49310;SDS011;35177;45.900;5.946;2024-02-21T14:10:32;10.60;;;4.68;;
49310;SDS011;35177;45.900;5.946;2024-02-21T14:12:58;10.30;;;4.35;;
49310;SDS011;35177;45.900;5.946;2024-02-21T14:15:24;8.48;;;4.30;;
49310;SDS011;35177;45.900;5.946;2024-02-21T14:17:50;7.68;;;3.92;;
49310;SDS011;35177;45.900;5.946;2024-02-21T14:20:15;5.32;;;3.42;;
49310;SDS011;35177;45.900;5.946;2024-02-21T14:22:40;12.93;;;3.97;;
49310;SDS011;35177;45.900;5.946;2024-02-21T14:25:06;5.70;;;3.35;;
49310;SDS011;35177;45.900;5.946;2024-02-21T14:27:31;15.95;;;4.60;;
49310;SDS011;35177;45.900;5.946;2024-02-21T14:29:57;11.32;;;3.67;;
49310;SDS011;35177;45.900;5.946;2024-02-21T14:32:22;14.43;;;3.85;;
49310;SDS011;35177;45.900;5.946;2024-02-21T14:34:48;6.45;;;4.10;;
49310;SDS011;35177;45.900;5.946;2024-02-21T14:37:14;7.25;;;4.38;;